Time;durP1;ratioP1;P1;durP2;ratioP2;P2;SDS_P1;SDS_P2;PMS_P1;PMS_P2;Temp;Humidity;BMP_temperature;BMP_pressure;BME280_temperature;BME280_humidity;BME280_pressure;Samples;Min_cycle;Max_cycle;Signal;HPM_P1;HPM_P2
2022/01/07 00:00:16;;;;;;;;;;;2.80;99.90;;;;;;5153562;27;19915;-76
2022/01/07 00:02:45;;;;;;;;;;;2.80;99.90;;;;;;5152712;27;19971;-76
2022/01/07 00:05:11;;;;;;;;;;;2.70;99.90;;;;;;5153345;27;20353;-76
2022/01/07 00:07:37;;;;;;;;;;;2.70;99.90;;;;;;5152981;27;19919;-76
2022/01/07 00:10:03;;;;;;;;;;;2.60;99.90;;;;;;5153693;27;19907;-79
2022/01/07 00:12:29;;;;;;;;;;;2.50;99.90;;;;;;5153682;27;19919;-78
2022/01/07 00:14:54;;;;;;;;;;;2.40;99.90;;;;;;5152834;27;20524;-78
2022/01/07 00:17:20;;;;;;;;;;;2.40;99.90;;;;;;5153756;27;19968;-78
2022/01/07 00:19:45;;;;;;;;;;;2.30;99.90;;;;;;5153087;27;19916;-78
2022/01/07 00:22:11;;;;;;;;;;;2.30;99.90;;;;;;5153622;27;19911;-78
2022/01/07 00:24:37;;;;;;;;;;;2.30;99.90;;;;;;5133946;27;19913;-76
2022/01/07 00:27:02;;;;;;;;;;;2.30;99.90;;;;;;5153370;27;19907;-78
2022/01/07 00:29:28;;;;;;;;;;;2.40;99.90;;;;;;5153390;27;19911;-77
2022/01/07 00:31:54;;;;;;;;;;;2.40;99.90;;;;;;5153497;27;19967;-77
2022/01/07 00:34:19;;;;;;;;;;;2.50;99.90;;;;;;5157812;27;19914;-77
2022/01/07 00:36:45;;;;;;;;;;;2.50;99.90;;;;;;5156721;27;19911;-77
2022/01/07 00:39:10;;;;;;;;;;;2.50;99.90;;;;;;5157975;27;20010;-75
2022/01/07 00:41:36;;;;;;;;;;;2.50;99.90;;;;;;5157395;27;20302;-75
2022/01/07 00:44:03;;;;;;;;;;;2.50;99.90;;;;;;5156973;27;19954;-76
2022/01/07 00:46:29;;;;;;;;;;;2.50;99.90;;;;;;5157801;27;19914;-76
2022/01/07 00:48:54;;;;;;;;;;;2.50;99.90;;;;;;5138152;27;19911;-75
2022/01/07 00:51:20;;;;;;;;;;;2.50;99.90;;;;;;5157138;27;19945;-76
2022/01/07 00:53:46;;;;;;;;;;;2.50;99.90;;;;;;5156628;27;19955;-75
2022/01/07 00:56:11;;;;;;;;;;;2.50;99.90;;;;;;5157764;27;19907;-75
2022/01/07 00:58:37;;;;;;;;;;;2.50;99.90;;;;;;5156792;27;19907;-75
2022/01/07 01:01:03;;;;;;;;;;;2.50;99.90;;;;;;5157066;27;19915;-76
2022/01/07 01:03:28;;;;;;;;;;;2.40;99.90;;;;;;5156819;27;19979;-76
2022/01/07 01:05:57;;;;;;;;;;;2.40;99.90;;;;;;5155884;27;20433;-76
2022/01/07 01:08:23;;;;;;;;;;;2.40;99.90;;;;;;5139194;27;19907;-78
2022/01/07 01:10:49;;;;;;;;;;;2.40;99.90;;;;;;5156094;27;19911;-76
2022/01/07 01:13:14;;;;;;;;;;;2.40;99.90;;;;;;5156757;27;20371;-76
2022/01/07 01:15:40;;;;;;;;;;;2.50;99.90;;;;;;5156484;27;20370;-77
2022/01/07 01:18:05;;;;;;;;;;;2.40;99.90;;;;;;5139089;27;19907;-77
2022/01/07 01:20:32;;;;;;;;;;;2.40;99.90;;;;;;5157441;27;20371;-77
2022/01/07 01:22:58;;;;;;;;;;;2.40;99.90;;;;;;5156478;27;19950;-75
2022/01/07 01:25:24;;;;;;;;;;;2.40;99.90;;;;;;5157868;27;20270;-76
2022/01/07 01:27:50;;;;;;;;;;;2.30;99.90;;;;;;5156621;27;19907;-76
2022/01/07 01:30:17;;;;;;;;;;;2.30;99.90;;;;;;5157701;27;19930;-77
2022/01/07 01:32:44;;;;;;;;;;;2.30;99.90;;;;;;5156713;27;19914;-76
2022/01/07 01:35:10;;;;;;;;;;;2.30;99.90;;;;;;5156894;27;20005;-77
2022/01/07 01:37:36;;;;;;;;;;;2.30;99.90;;;;;;5157031;27;20363;-76
2022/01/07 01:40:03;;;;;;;;;;;2.30;99.90;;;;;;5156145;27;19915;-77
2022/01/07 01:42:28;;;;;;;;;;;2.40;99.90;;;;;;5138509;27;19907;-76
2022/01/07 01:44:54;;;;;;;;;;;2.40;99.90;;;;;;5156691;27;20364;-76
2022/01/07 01:47:19;;;;;;;;;;;2.40;99.90;;;;;;5157106;27;19914;-76
2022/01/07 01:49:45;;;;;;;;;;;2.40;99.90;;;;;;5135241;27;20271;-75
2022/01/07 01:52:11;;;;;;;;;;;2.50;99.90;;;;;;5137847;27;20002;-76
2022/01/07 01:54:36;;;;;;;;;;;2.50;99.90;;;;;;5121495;27;19930;-76
2022/01/07 01:57:02;;;;;;;;;;;2.50;99.90;;;;;;5135166;27;19946;-76
2022/01/07 01:59:29;;;;;;;;;;;2.50;99.90;;;;;;5135948;27;19907;-76
2022/01/07 02:01:55;;;;;;;;;;;2.50;99.90;;;;;;5135060;27;19972;-75
2022/01/07 02:04:23;;;;;;;;;;;2.50;99.90;;;;;;5134782;27;21362;-76
2022/01/07 02:06:49;;;;;;;;;;;2.50;99.90;;;;;;5135123;27;19918;-76
2022/01/07 02:09:15;;;;;;;;;;;2.50;99.90;;;;;;5135613;27;19950;-76
2022/01/07 02:11:40;;;;;;;;;;;2.50;99.90;;;;;;5135405;27;19907;-75
2022/01/07 02:14:06;;;;;;;;;;;2.50;99.90;;;;;;5135139;27;19960;-76
2022/01/07 02:16:32;;;;;;;;;;;2.50;99.90;;;;;;5135630;27;19914;-76
2022/01/07 02:18:57;;;;;;;;;;;2.50;99.90;;;;;;5134695;27;19914;-75
2022/01/07 02:21:24;;;;;;;;;;;2.50;99.90;;;;;;5135298;27;19983;-75
2022/01/07 02:23:50;;;;;;;;;;;2.50;99.90;;;;;;5116197;27;20015;-75
2022/01/07 02:26:17;;;;;;;;;;;2.50;99.90;;;;;;5135651;27;19960;-75
2022/01/07 02:28:42;;;;;;;;;;;2.50;99.90;;;;;;5134425;27;19908;-75
2022/01/07 02:31:08;;;;;;;;;;;2.40;99.90;;;;;;5135026;27;20461;-75
2022/01/07 02:33:34;;;;;;;;;;;2.40;99.90;;;;;;5135206;27;19931;-76
2022/01/07 02:36:05;;;;;;;;;;;2.40;99.90;;;;;;5134469;27;19914;-76
2022/01/07 02:38:31;;;;;;;;;;;2.30;99.90;;;;;;5116617;27;20420;-76
2022/01/07 02:40:57;;;;;;;;;;;2.40;99.90;;;;;;5115661;27;20011;-76
2022/01/07 02:43:22;;;;;;;;;;;2.30;99.90;;;;;;5135190;27;19998;-76
2022/01/07 02:45:48;;;;;;;;;;;2.40;99.90;;;;;;5134222;27;19908;-76
2022/01/07 02:48:13;;;;;;;;;;;2.30;99.90;;;;;;5134617;27;19908;-76
2022/01/07 02:50:39;;;;;;;;;;;2.30;99.90;;;;;;5134866;27;20285;-76
2022/01/07 02:53:08;;;;;;;;;;;2.40;99.90;;;;;;5134191;27;20203;-76
2022/01/07 02:55:34;;;;;;;;;;;2.30;99.90;;;;;;5134408;27;19912;-77
2022/01/07 02:58:00;;;;;;;;;;;2.30;99.90;;;;;;5134217;27;19915;-76
2022/01/07 03:00:27;;;;;;;;;;;2.30;99.90;;;;;;5141231;27;19911;-76
2022/01/07 03:02:54;;;;;;;;;;;2.40;99.90;;;;;;5154460;27;20356;-76
2022/01/07 03:05:19;;;;;;;;;;;2.40;99.90;;;;;;5155541;27;19911;-77
2022/01/07 03:07:47;;;;;;;;;;;2.40;99.90;;;;;;5154877;27;19914;-75
2022/01/07 03:10:14;;;;;;;;;;;2.40;99.90;;;;;;5154996;27;19914;-76
2022/01/07 03:12:42;;;;;;;;;;;2.40;99.90;;;;;;5155040;27;19907;-76
2022/01/07 03:15:09;;;;;;;;;;;2.40;99.90;;;;;;5154505;27;19911;-76
2022/01/07 03:17:34;;;;;;;;;;;2.40;99.90;;;;;;5155011;27;20017;-76
2022/01/07 03:20:00;;;;;;;;;;;2.40;99.90;;;;;;5154104;27;20044;-76
2022/01/07 03:22:26;;;;;;;;;;;2.50;99.90;;;;;;5136543;27;19995;-77
2022/01/07 03:24:51;;;;;;;;;;;2.40;99.90;;;;;;5154184;27;19907;-76
2022/01/07 03:27:17;;;;;;;;;;;2.40;99.90;;;;;;5155348;27;20023;-79
2022/01/07 03:29:42;;;;;;;;;;;2.40;99.90;;;;;;5154500;27;20310;-79
2022/01/07 03:32:10;;;;;;;;;;;2.30;99.90;;;;;;5153788;27;19938;-79
2022/01/07 03:34:35;;;;;;;;;;;2.20;99.90;;;;;;5154833;27;19911;-78
2022/01/07 03:37:01;;;;;;;;;;;2.10;99.90;;;;;;5140859;27;19907;-76
2022/01/07 03:39:26;;;;;;;;;;;2.10;99.90;;;;;;5134564;27;19918;-76
2022/01/07 03:41:52;;;;;;;;;;;2.10;99.90;;;;;;5133314;27;20257;-76
2022/01/07 03:44:17;;;;;;;;;;;2.10;99.90;;;;;;5133992;27;19907;-76
2022/01/07 03:46:43;;;;;;;;;;;2.10;99.90;;;;;;5133912;27;19956;-77
2022/01/07 03:49:09;;;;;;;;;;;2.10;99.90;;;;;;5133182;27;20166;-77
2022/01/07 03:51:34;;;;;;;;;;;2.10;99.90;;;;;;5133924;27;19960;-76
2022/01/07 03:54:00;;;;;;;;;;;2.10;99.90;;;;;;5132603;27;19908;-76
2022/01/07 03:56:25;;;;;;;;;;;2.00;99.90;;;;;;5133876;27;19915;-76
2022/01/07 03:58:51;;;;;;;;;;;2.10;99.90;;;;;;5133010;27;20412;-75
2022/01/07 04:01:16;;;;;;;;;;;2.00;99.90;;;;;;5133236;27;19915;-76
2022/01/07 04:03:42;;;;;;;;;;;2.00;99.90;;;;;;5133203;27;19971;-76
2022/01/07 04:06:08;;;;;;;;;;;2.10;99.90;;;;;;5113898;28;19914;-76
2022/01/07 04:08:33;;;;;;;;;;;2.10;99.90;;;;;;5133160;27;19919;-76
2022/01/07 04:10:59;;;;;;;;;;;2.10;99.90;;;;;;5132384;27;19939;-75
2022/01/07 04:13:25;;;;;;;;;;;2.10;99.90;;;;;;5133405;27;19911;-76
2022/01/07 04:15:50;;;;;;;;;;;2.00;99.90;;;;;;5114724;27;19950;-75
2022/01/07 04:18:16;;;;;;;;;;;2.10;99.90;;;;;;5133406;27;19930;-75
2022/01/07 04:20:41;;;;;;;;;;;2.00;99.90;;;;;;5133465;27;19922;-76
2022/01/07 04:23:07;;;;;;;;;;;2.00;99.90;;;;;;5132607;27;20344;-75
2022/01/07 04:25:33;;;;;;;;;;;2.00;99.90;;;;;;5133454;28;19908;-76
2022/01/07 04:28:00;;;;;;;;;;;2.00;99.90;;;;;;5114333;28;19913;-75
2022/01/07 04:30:29;;;;;;;;;;;2.10;99.90;;;;;;5133513;28;19915;-76
2022/01/07 04:32:55;;;;;;;;;;;2.00;99.90;;;;;;5132606;28;19911;-73
2022/01/07 04:35:21;;;;;;;;;;;2.00;99.90;;;;;;5133625;28;19908;-75
2022/01/07 04:37:47;;;;;;;;;;;2.00;99.90;;;;;;5133672;28;20036;-76
2022/01/07 04:40:14;;;;;;;;;;;2.00;99.90;;;;;;5132171;28;20033;-75
2022/01/07 04:42:39;;;;;;;;;;;2.00;99.90;;;;;;5132882;28;19959;-74
2022/01/07 04:45:06;;;;;;;;;;;2.10;99.90;;;;;;5132226;28;19907;-75
2022/01/07 04:47:32;;;;;;;;;;;2.00;99.90;;;;;;5132885;27;19908;-75
2022/01/07 04:49:58;;;;;;;;;;;2.10;99.90;;;;;;5132358;28;19912;-76
2022/01/07 04:52:23;;;;;;;;;;;2.10;99.90;;;;;;5133322;28;19908;-74
2022/01/07 04:54:49;;;;;;;;;;;2.20;99.90;;;;;;5133583;28;20010;-74
2022/01/07 04:57:15;;;;;;;;;;;2.20;99.90;;;;;;5132485;28;19911;-74
2022/01/07 04:59:40;;;;;;;;;;;2.20;99.90;;;;;;5132936;28;19919;-74
2022/01/07 05:02:06;;;;;;;;;;;2.20;99.90;;;;;;5131732;28;20340;-74
2022/01/07 05:04:32;;;;;;;;;;;2.20;99.90;;;;;;5133511;28;19908;-74
2022/01/07 05:06:58;;;;;;;;;;;2.20;99.90;;;;;;5131978;28;19908;-74
2022/01/07 05:09:23;;;;;;;;;;;2.20;99.90;;;;;;5132920;28;20391;-74
2022/01/07 05:11:50;;;;;;;;;;;2.20;99.90;;;;;;5132787;28;20000;-74
2022/01/07 05:14:16;;;;;;;;;;;2.20;99.90;;;;;;5132265;28;19911;-74
2022/01/07 05:16:42;;;;;;;;;;;2.20;99.90;;;;;;5133390;28;19915;-74
2022/01/07 05:19:09;;;;;;;;;;;2.10;99.90;;;;;;5137776;27;19907;-74
2022/01/07 05:21:35;;;;;;;;;;;2.20;99.90;;;;;;5139378;27;20045;-74
2022/01/07 05:24:01;;;;;;;;;;;2.20;99.90;;;;;;5141273;27;19911;-74
2022/01/07 05:26:26;;;;;;;;;;;2.20;99.90;;;;;;5157501;27;19907;-75
2022/01/07 05:28:52;;;;;;;;;;;2.20;99.90;;;;;;5157169;27;19956;-75
2022/01/07 05:31:18;;;;;;;;;;;2.20;99.90;;;;;;5156664;27;19960;-75
2022/01/07 05:33:44;;;;;;;;;;;2.30;99.90;;;;;;5157245;27;19914;-75
2022/01/07 05:36:10;;;;;;;;;;;2.30;99.90;;;;;;5156120;27;19911;-74
2022/01/07 05:38:35;;;;;;;;;;;2.30;99.90;;;;;;5156823;27;19930;-75
2022/01/07 05:41:01;;;;;;;;;;;2.30;99.90;;;;;;5156017;27;19915;-74
2022/01/07 05:43:30;;;;;;;;;;;2.20;99.90;;;;;;5138394;27;20014;-76
2022/01/07 05:45:56;;;;;;;;;;;2.20;99.90;;;;;;5156586;27;20014;-72
2022/01/07 05:48:22;;;;;;;;;;;2.20;99.90;;;;;;5156323;27;19908;-75
2022/01/07 05:50:48;;;;;;;;;;;2.20;99.90;;;;;;5156916;27;20359;-75
2022/01/07 05:53:13;;;;;;;;;;;2.20;99.90;;;;;;5156167;27;19907;-75
2022/01/07 05:55:39;;;;;;;;;;;2.20;99.90;;;;;;5138197;27;19907;-75
2022/01/07 05:58:04;;;;;;;;;;;2.20;99.90;;;;;;5156041;27;19911;-75
2022/01/07 06:00:30;;;;;;;;;;;2.20;99.90;;;;;;5155971;27;19918;-75
2022/01/07 06:02:56;;;;;;;;;;;2.20;99.90;;;;;;5156021;27;19926;-75
2022/01/07 06:05:21;;;;;;;;;;;2.20;99.90;;;;;;5156050;27;19907;-76
2022/01/07 06:07:47;;;;;;;;;;;2.20;99.90;;;;;;5137881;27;19956;-75
2022/01/07 06:10:13;;;;;;;;;;;2.20;99.90;;;;;;5137250;27;20002;-75
2022/01/07 06:12:39;;;;;;;;;;;2.20;99.90;;;;;;5156547;27;19951;-75
2022/01/07 06:15:05;;;;;;;;;;;2.20;99.90;;;;;;5155521;27;20291;-75
2022/01/07 06:17:31;;;;;;;;;;;2.20;99.90;;;;;;5156397;27;19907;-75
2022/01/07 06:19:56;;;;;;;;;;;2.20;99.90;;;;;;5156253;27;20253;-75
2022/01/07 06:22:22;;;;;;;;;;;2.10;99.90;;;;;;5155834;27;19914;-74
2022/01/07 06:24:47;;;;;;;;;;;2.20;99.90;;;;;;5156484;27;19911;-75
2022/01/07 06:27:13;;;;;;;;;;;2.20;99.90;;;;;;5155488;27;19908;-75
2022/01/07 06:29:39;;;;;;;;;;;2.20;99.90;;;;;;5136639;27;19932;-76
2022/01/07 06:32:05;;;;;;;;;;;2.20;99.90;;;;;;5155278;27;19964;-75
2022/01/07 06:34:31;;;;;;;;;;;2.20;99.90;;;;;;5155854;27;19907;-76
2022/01/07 06:36:58;;;;;;;;;;;2.20;99.90;;;;;;5155628;27;19918;-75
2022/01/07 06:39:24;;;;;;;;;;;2.20;99.90;;;;;;5155496;27;19915;-75
2022/01/07 06:41:50;;;;;;;;;;;2.20;99.90;;;;;;5155967;27;19960;-76
2022/01/07 06:44:16;;;;;;;;;;;2.20;99.90;;;;;;5154877;27;19914;-75
2022/01/07 06:46:42;;;;;;;;;;;2.30;99.90;;;;;;5155918;27;19929;-75
2022/01/07 06:49:08;;;;;;;;;;;2.20;99.90;;;;;;5154965;27;19952;-75
2022/01/07 06:51:33;;;;;;;;;;;2.20;99.90;;;;;;5156084;27;19913;-75
2022/01/07 06:53:59;;;;;;;;;;;2.20;99.90;;;;;;5155371;27;19956;-75
2022/01/07 06:56:25;;;;;;;;;;;2.20;99.90;;;;;;5136700;27;19965;-75
2022/01/07 06:58:50;;;;;;;;;;;2.10;99.90;;;;;;5155662;27;19950;-75
2022/01/07 07:01:16;;;;;;;;;;;2.10;99.90;;;;;;5155059;27;20251;-76
2022/01/07 07:03:42;;;;;;;;;;;2.10;99.90;;;;;;5154940;27;19919;-74
2022/01/07 07:06:08;;;;;;;;;;;2.10;99.90;;;;;;5154970;27;19907;-74
2022/01/07 07:08:33;;;;;;;;;;;2.10;99.90;;;;;;5155330;27;19908;-75
2022/01/07 07:10:59;;;;;;;;;;;2.10;99.90;;;;;;5155215;27;19907;-74
2022/01/07 07:13:24;;;;;;;;;;;2.10;99.90;;;;;;5154053;27;19915;-74
2022/01/07 07:15:50;;;;;;;;;;;2.10;99.90;;;;;;5136649;27;19930;-76
2022/01/07 07:18:17;;;;;;;;;;;2.00;99.90;;;;;;5154455;27;19914;-75
2022/01/07 07:20:43;;;;;;;;;;;2.00;99.90;;;;;;5154828;27;19938;-75
2022/01/07 07:23:09;;;;;;;;;;;2.00;99.90;;;;;;5153977;27;19968;-75
2022/01/07 07:25:34;;;;;;;;;;;2.00;99.90;;;;;;5154730;27;19958;-75
2022/01/07 07:28:00;;;;;;;;;;;2.00;99.90;;;;;;5155026;27;20267;-76
2022/01/07 07:30:33;;;;;;;;;;;2.00;99.90;;;;;;5154092;27;19907;-74
2022/01/07 07:33:07;;;;;;;;;;;1.90;99.90;;;;;;5154849;27;19955;-75
2022/01/07 07:38:17;;;;;;;;;;;1.90;99.90;;;;;;5154107;27;20290;-75
2022/01/07 07:40:42;;;;;;;;;;;1.90;99.90;;;;;;5155295;27;19915;-76
2022/01/07 07:43:08;;;;;;;;;;;1.90;99.90;;;;;;5159416;27;19907;-75
2022/01/07 07:45:33;;;;;;;;;;;1.90;99.90;;;;;;5159782;27;19914;-76
2022/01/07 07:47:59;;;;;;;;;;;1.90;99.90;;;;;;5154422;27;20374;-74
2022/01/07 07:50:25;;;;;;;;;;;1.90;99.90;;;;;;5153619;27;19996;-75
2022/01/07 07:52:50;;;;;;;;;;;1.90;99.90;;;;;;5154587;27;19907;-75
2022/01/07 07:55:16;;;;;;;;;;;1.90;99.90;;;;;;5153701;27;19960;-76
2022/01/07 07:57:41;;;;;;;;;;;2.00;99.90;;;;;;5154322;27;19914;-75
2022/01/07 08:00:07;;;;;;;;;;;2.00;99.90;;;;;;5153747;27;20420;-73
2022/01/07 08:02:34;;;;;;;;;;;2.00;99.90;;;;;;5154147;27;19919;-76
2022/01/07 08:04:59;;;;;;;;;;;2.00;99.90;;;;;;5154242;27;19911;-76
2022/01/07 08:07:25;;;;;;;;;;;2.00;99.90;;;;;;5153077;27;19913;-75
2022/01/07 08:09:52;;;;;;;;;;;2.00;99.90;;;;;;5154339;27;20351;-75
2022/01/07 08:12:22;;;;;;;;;;;2.00;99.90;;;;;;5153358;27;19981;-75
2022/01/07 08:17:32;;;;;;;;;;;2.10;99.90;;;;;;5145405;27;19935;-76
2022/01/07 08:19:58;;;;;;;;;;;2.10;99.90;;;;;;5132115;27;19924;-76
2022/01/07 08:22:23;;;;;;;;;;;2.20;99.90;;;;;;5132354;28;19916;-75
2022/01/07 08:24:50;;;;;;;;;;;2.20;99.90;;;;;;5132848;27;20035;-75
2022/01/07 08:27:15;;;;;;;;;;;2.20;99.90;;;;;;5131771;28;19912;-74
2022/01/07 08:29:42;;;;;;;;;;;2.30;99.90;;;;;;5136159;27;19959;-76
2022/01/07 08:34:56;;;;;;;;;;;2.30;99.90;;;;;;5143861;27;19914;-76
2022/01/07 08:37:22;;;;;;;;;;;2.30;99.90;;;;;;5134366;27;19918;-76
2022/01/07 08:39:48;;;;;;;;;;;2.40;99.90;;;;;;5153603;27;19919;-76
2022/01/07 08:42:14;;;;;;;;;;;2.40;99.90;;;;;;5152753;27;19907;-75
2022/01/07 08:44:39;;;;;;;;;;;2.40;99.90;;;;;;5140000;27;20052;-76
2022/01/07 08:47:05;;;;;;;;;;;2.40;99.90;;;;;;5145540;27;19907;-76
2022/01/07 08:49:30;;;;;;;;;;;2.40;99.90;;;;;;5145114;27;19911;-75
2022/01/07 08:51:58;;;;;;;;;;;2.50;99.90;;;;;;5141917;27;19915;-75
2022/01/07 08:54:24;;;;;;;;;;;2.50;99.90;;;;;;5144988;27;19954;-75
2022/01/07 08:56:50;;;;;;;;;;;2.60;99.90;;;;;;5147309;27;20313;-75
2022/01/07 08:59:15;;;;;;;;;;;2.70;99.90;;;;;;5142036;27;20356;-75
2022/01/07 09:01:42;;;;;;;;;;;2.70;99.90;;;;;;5118265;27;19916;-75
2022/01/07 09:04:08;;;;;;;;;;;2.70;99.90;;;;;;5136542;27;20245;-74
2022/01/07 09:06:34;;;;;;;;;;;2.70;99.90;;;;;;5135986;27;19908;-76
2022/01/07 09:08:59;;;;;;;;;;;2.70;99.90;;;;;;5101423;27;20285;-76
2022/01/07 09:11:25;;;;;;;;;;;2.80;99.90;;;;;;5135882;27;19915;-76
2022/01/07 09:13:52;;;;;;;;;;;2.80;99.90;;;;;;5136940;27;19914;-76
2022/01/07 09:16:18;;;;;;;;;;;2.80;99.90;;;;;;5135903;27;19915;-76
2022/01/07 09:18:43;;;;;;;;;;;2.80;99.90;;;;;;5136496;27;20360;-76
2022/01/07 09:21:09;;;;;;;;;;;2.80;99.90;;;;;;5136103;27;19938;-76
2022/01/07 09:23:39;;;;;;;;;;;2.80;99.90;;;;;;5135995;27;20423;-76
2022/01/07 09:26:04;;;;;;;;;;;2.90;99.90;;;;;;5142914;27;19923;-77
2022/01/07 09:28:30;;;;;;;;;;;2.90;99.90;;;;;;5143623;27;19903;-75
2022/01/07 09:30:55;;;;;;;;;;;2.90;99.90;;;;;;5144396;27;19911;-76
2022/01/07 09:33:21;;;;;;;;;;;2.90;99.90;;;;;;5140948;27;20002;-76
2022/01/07 09:35:47;;;;;;;;;;;3.00;99.90;;;;;;5146395;27;19914;-75
2022/01/07 09:38:12;;;;;;;;;;;3.00;99.90;;;;;;5151586;27;19907;-76
2022/01/07 09:40:38;;;;;;;;;;;3.00;99.90;;;;;;5149532;27;19919;-77
2022/01/07 09:43:05;;;;;;;;;;;3.10;99.90;;;;;;5142664;27;20018;-76
2022/01/07 09:45:31;;;;;;;;;;;3.10;99.90;;;;;;5140609;27;20509;-76
2022/01/07 09:47:57;;;;;;;;;;;3.10;99.90;;;;;;5136197;27;19923;-76
2022/01/07 09:50:24;;;;;;;;;;;3.10;99.90;;;;;;5135439;27;19907;-76
2022/01/07 09:52:49;;;;;;;;;;;3.20;99.90;;;;;;5136175;27;20391;-76
2022/01/07 09:55:15;;;;;;;;;;;3.20;99.90;;;;;;5135294;27;19922;-75
2022/01/07 09:57:41;;;;;;;;;;;3.20;99.90;;;;;;5155464;27;19911;-76
2022/01/07 10:00:07;;;;;;;;;;;3.30;99.90;;;;;;5137756;27;19915;-76
2022/01/07 10:02:33;;;;;;;;;;;3.30;99.90;;;;;;5156090;27;19919;-76
2022/01/07 10:05:12;;;;;;;;;;;3.30;99.90;;;;;;5154334;27;19951;-76
2022/01/07 10:07:38;;;;;;;;;;;3.40;99.90;;;;;;5155713;27;19936;-76
2022/01/07 10:10:04;;;;;;;;;;;3.40;99.90;;;;;;5155825;27;19907;-76
2022/01/07 10:12:31;;;;;;;;;;;3.40;99.90;;;;;;5136103;27;20280;-76
2022/01/07 10:15:16;;;;;;;;;;;3.40;99.90;;;;;;5147840;27;19915;-76
2022/01/07 10:17:52;;;;;;;;;;;3.40;99.90;;;;;;5145226;27;19956;-76
2022/01/07 10:20:21;;;;;;;;;;;3.40;99.90;;;;;;5155141;27;19915;-76
2022/01/07 10:22:51;;;;;;;;;;;3.40;99.90;;;;;;5152088;27;20915;-77
2022/01/07 10:25:27;;;;;;;;;;;3.50;99.90;;;;;;5148098;27;19912;-75
2022/01/07 10:27:57;;;;;;;;;;;3.40;99.90;;;;;;5154340;27;19952;-75
2022/01/07 10:30:26;;;;;;;;;;;3.50;99.90;;;;;;5154865;27;20326;-76
2022/01/07 10:32:56;;;;;;;;;;;3.50;99.90;;;;;;5155583;27;19911;-76
2022/01/07 10:35:25;;;;;;;;;;;3.50;99.90;;;;;;5148920;27;19911;-76
2022/01/07 10:37:52;;;;;;;;;;;3.50;99.90;;;;;;5145767;27;19914;-76
2022/01/07 10:40:25;;;;;;;;;;;3.50;99.90;;;;;;5141779;27;20356;-76
2022/01/07 10:43:14;;;;;;;;;;;3.50;99.90;;;;;;5134313;27;19972;-77
2022/01/07 10:45:43;;;;;;;;;;;3.50;99.90;;;;;;5123261;27;19908;-77
2022/01/07 10:48:09;;;;;;;;;;;3.50;99.90;;;;;;5134118;27;19911;-79
2022/01/07 10:50:43;;;;;;;;;;;3.50;99.90;;;;;;5141643;27;20488;-79
2022/01/07 10:53:14;;;;;;;;;;;3.50;99.90;;;;;;5144796;27;19908;-78
2022/01/07 10:55:40;;;;;;;;;;;3.50;99.90;;;;;;5139109;27;19907;-78
2022/01/07 10:58:06;;;;;;;;;;;3.50;99.90;;;;;;5133662;27;19916;-77
2022/01/07 11:00:36;;;;;;;;;;;3.50;99.90;;;;;;5133504;27;19916;-79
2022/01/07 11:03:06;;;;;;;;;;;3.50;99.90;;;;;;5134713;27;19926;-80
2022/01/07 11:05:32;;;;;;;;;;;3.50;99.90;;;;;;5133179;27;19908;-79
2022/01/07 11:07:59;;;;;;;;;;;3.40;99.90;;;;;;5134415;27;19991;-80
2022/01/07 11:10:25;;;;;;;;;;;3.40;99.90;;;;;;5133868;27;19943;-80
2022/01/07 11:12:51;;;;;;;;;;;3.30;99.90;;;;;;5134582;27;19961;-80
2022/01/07 11:15:16;;;;;;;;;;;3.20;99.90;;;;;;5133405;27;19907;-76
2022/01/07 11:17:42;;;;;;;;;;;3.20;99.90;;;;;;5133880;27;19930;-78
2022/01/07 11:20:10;;;;;;;;;;;3.20;99.90;;;;;;5134279;27;19916;-80
2022/01/07 11:22:38;;;;;;;;;;;3.10;99.90;;;;;;5133348;27;20497;-80
2022/01/07 11:25:06;;;;;;;;;;;3.00;99.90;;;;;;5116351;27;19907;-81
2022/01/07 11:27:44;;;;;;;;;;;2.90;99.90;;;;;;5133669;27;20360;-81
2022/01/07 11:30:12;;;;;;;;;;;2.90;99.90;;;;;;5116242;27;20362;-82
2022/01/07 11:32:38;;;;;;;;;;;2.80;99.90;;;;;;5114393;27;20110;-83
2022/01/07 11:35:16;;;;;;;;;;;2.80;99.90;;;;;;5116062;27;19908;-83
2022/01/07 11:37:43;;;;;;;;;;;2.80;99.90;;;;;;5134238;27;19907;-83
2022/01/07 11:40:09;;;;;;;;;;;2.70;99.90;;;;;;5133608;27;20417;-83
2022/01/07 11:42:42;;;;;;;;;;;2.60;99.90;;;;;;5133612;27;19916;-83
2022/01/07 11:45:29;;;;;;;;;;;2.60;99.90;;;;;;5133886;27;19939;-83
2022/01/07 11:48:10;;;;;;;;;;;2.60;99.90;;;;;;5133990;27;19930;-83
2022/01/07 11:51:08;;;;;;;;;;;2.60;99.90;;;;;;5133614;27;19912;-83
2022/01/07 11:53:41;;;;;;;;;;;2.60;99.90;;;;;;5133297;27;20370;-85
2022/01/07 11:56:25;;;;;;;;;;;2.60;99.90;;;;;;5134497;27;20256;-85
2022/01/07 11:58:56;;;;;;;;;;;2.40;99.90;;;;;;5128889;27;19915;-86
2022/01/07 12:01:21;;;;;;;;;;;2.40;99.90;;;;;;5114260;27;19916;-86
2022/01/07 12:03:49;;;;;;;;;;;2.40;99.90;;;;;;5133890;27;19919;-86
2022/01/07 12:06:17;;;;;;;;;;;2.30;99.90;;;;;;5114893;27;20096;-86
2022/01/07 12:08:58;;;;;;;;;;;2.30;99.90;;;;;;5114574;27;20356;-86
2022/01/07 12:11:31;;;;;;;;;;;2.20;99.90;;;;;;5114908;27;19907;-87
2022/01/07 12:13:57;;;;;;;;;;;2.20;99.90;;;;;;5115188;27;19908;-85
2022/01/07 12:16:30;;;;;;;;;;;2.10;99.90;;;;;;5114419;28;20313;-83
2022/01/07 12:19:15;;;;;;;;;;;2.00;99.90;;;;;;5133485;27;19908;-82
2022/01/07 12:21:42;;;;;;;;;;;2.00;99.90;;;;;;5114440;27;19911;-86
2022/01/07 12:24:08;;;;;;;;;;;2.00;99.90;;;;;;5133676;27;20025;-86
2022/01/07 12:26:34;;;;;;;;;;;1.90;99.90;;;;;;5133065;28;19907;-84
2022/01/07 12:29:00;;;;;;;;;;;1.90;99.90;;;;;;5115355;28;20044;-83
2022/01/07 12:31:25;;;;;;;;;;;2.00;99.90;;;;;;5133035;28;20059;-82
2022/01/07 12:33:52;;;;;;;;;;;2.00;99.90;;;;;;5134557;28;19907;-83
2022/01/07 12:36:28;;;;;;;;;;;2.00;99.90;;;;;;5133631;28;19990;-83
2022/01/07 12:38:57;;;;;;;;;;;2.10;99.90;;;;;;5133399;28;19915;-84
2022/01/07 12:41:23;;;;;;;;;;;2.20;99.90;;;;;;5114051;28;19915;-83
2022/01/07 12:43:48;;;;;;;;;;;2.20;99.90;;;;;;5133268;28;19907;-82
2022/01/07 12:46:17;;;;;;;;;;;2.30;99.90;;;;;;5132982;28;20091;-83
2022/01/07 12:48:44;;;;;;;;;;;2.30;99.90;;;;;;5132260;28;20439;-81
2022/01/07 12:51:10;;;;;;;;;;;2.40;99.90;;;;;;5133039;28;19908;-81
2022/01/07 12:53:36;;;;;;;;;;;2.50;99.90;;;;;;5132661;28;19907;-80
2022/01/07 12:56:20;;;;;;;;;;;2.50;99.90;;;;;;5133171;28;19914;-81
2022/01/07 12:58:45;;;;;;;;;;;2.60;99.90;;;;;;5131951;28;20425;-81
2022/01/07 13:01:40;;;;;;;;;;;2.70;99.90;;;;;;5133893;27;19919;-80
2022/01/07 13:04:07;;;;;;;;;;;2.90;99.90;;;;;;5120061;27;19959;-82
2022/01/07 13:06:43;;;;;;;;;;;3.00;99.90;;;;;;5142704;27;19907;-81
2022/01/07 13:09:09;;;;;;;;;;;3.10;99.90;;;;;;5146563;27;19907;-80
2022/01/07 13:11:35;;;;;;;;;;;3.20;99.90;;;;;;5143426;27;19911;-79
2022/01/07 13:14:03;;;;;;;;;;;3.30;99.90;;;;;;5139790;27;19911;-79
2022/01/07 13:16:30;;;;;;;;;;;3.30;99.90;;;;;;5148938;27;19943;-79
2022/01/07 13:19:09;;;;;;;;;;;3.30;99.90;;;;;;5136600;27;19907;-79
2022/01/07 13:21:36;;;;;;;;;;;3.30;99.90;;;;;;5142221;27;20130;-77
2022/01/07 13:24:02;;;;;;;;;;;3.30;99.90;;;;;;5146277;27;19907;-77
2022/01/07 13:26:30;;;;;;;;;;;3.30;99.90;;;;;;5137665;27;19927;-77
2022/01/07 13:28:57;;;;;;;;;;;3.20;99.90;;;;;;5140890;27;19915;-76
2022/01/07 13:31:30;;;;;;;;;;;3.20;99.90;;;;;;5137313;27;19912;-75
2022/01/07 13:33:56;;;;;;;;;;;3.20;99.90;;;;;;5135841;27;20206;-76
2022/01/07 13:36:21;;;;;;;;;;;3.10;99.90;;;;;;5135870;27;19971;-75
2022/01/07 13:38:57;;;;;;;;;;;3.10;99.90;;;;;;5133562;27;20013;-76
2022/01/07 13:41:23;;;;;;;;;;;3.10;99.90;;;;;;5149078;27;19919;-75
2022/01/07 13:43:49;;;;;;;;;;;3.10;99.90;;;;;;5151435;27;19914;-75
2022/01/07 13:46:18;;;;;;;;;;;3.20;99.90;;;;;;5144618;27;19915;-76
2022/01/07 13:49:03;;;;;;;;;;;3.20;99.90;;;;;;5146587;27;19994;-79
2022/01/07 13:51:30;;;;;;;;;;;3.20;99.90;;;;;;5140247;27;19980;-74
2022/01/07 13:54:09;;;;;;;;;;;3.20;99.90;;;;;;5143642;27;20301;-77
2022/01/07 13:56:36;;;;;;;;;;;3.20;99.90;;;;;;5144569;27;19971;-77
2022/01/07 13:59:03;;;;;;;;;;;3.30;99.90;;;;;;5135581;27;20002;-77
2022/01/07 14:01:29;;;;;;;;;;;3.30;99.90;;;;;;5134768;27;19947;-76
2022/01/07 14:03:54;;;;;;;;;;;3.40;99.90;;;;;;5135176;27;19973;-77
2022/01/07 14:06:21;;;;;;;;;;;3.40;99.90;;;;;;5135763;27;20256;-77
2022/01/07 14:08:47;;;;;;;;;;;3.40;99.90;;;;;;5134973;27;19911;-77
2022/01/07 14:11:16;;;;;;;;;;;3.50;99.90;;;;;;5135221;27;19914;-77
2022/01/07 14:13:42;;;;;;;;;;;3.50;99.90;;;;;;5134886;27;19949;-76
2022/01/07 14:16:08;;;;;;;;;;;3.50;99.90;;;;;;5135522;27;19952;-77
2022/01/07 14:18:36;;;;;;;;;;;3.50;99.90;;;;;;5134781;27;20322;-77
2022/01/07 14:21:06;;;;;;;;;;;3.60;99.90;;;;;;5135147;27;20256;-77
2022/01/07 14:23:32;;;;;;;;;;;3.70;99.90;;;;;;5134783;27;19915;-77
2022/01/07 14:26:05;;;;;;;;;;;3.60;99.90;;;;;;5135619;27;19908;-77
2022/01/07 14:28:32;;;;;;;;;;;3.60;99.90;;;;;;5134332;27;19908;-75
2022/01/07 14:30:57;;;;;;;;;;;3.60;99.90;;;;;;5135333;27;19908;-76
2022/01/07 14:33:23;;;;;;;;;;;3.60;99.90;;;;;;5135287;27;19995;-77
2022/01/07 14:35:50;;;;;;;;;;;3.50;99.90;;;;;;5134723;27;20359;-77
2022/01/07 14:38:15;;;;;;;;;;;3.50;99.90;;;;;;5135094;27;20010;-77